Time;durP1;ratioP1;P1;durP2;ratioP2;P2;SDS_P1;SDS_P2;PMS_P1;PMS_P2;Temp;Humidity;BMP_temperature;BMP_pressure;BME280_temperature;BME280_humidity;BME280_pressure;Samples;Min_cycle;Max_cycle;Signal;HPM_P1;HPM_P2
2021/12/29 00:00:27;;;;;;;;;;;9.30;99.90;;;;;;5088956;28;20430;-70
2021/12/29 00:02:53;;;;;;;;;;;9.40;99.90;;;;;;5090154;28;19908;-70
2021/12/29 00:05:19;;;;;;;;;;;9.50;99.90;;;;;;5092020;28;19951;-70
2021/12/29 00:07:45;;;;;;;;;;;9.40;99.90;;;;;;5106787;28;19953;-69
2021/12/29 00:10:11;;;;;;;;;;;9.40;99.90;;;;;;5093860;28;19912;-71
2021/12/29 00:12:42;;;;;;;;;;;9.50;99.90;;;;;;5079519;28;19907;-70
2021/12/29 00:15:08;;;;;;;;;;;9.50;99.90;;;;;;5092741;28;19999;-69
2021/12/29 00:17:34;;;;;;;;;;;9.60;99.90;;;;;;5096272;28;20254;-71
2021/12/29 00:19:59;;;;;;;;;;;9.50;99.90;;;;;;5090435;28;20003;-71
2021/12/29 00:22:25;;;;;;;;;;;9.50;99.90;;;;;;5085630;28;19947;-70
2021/12/29 00:24:51;;;;;;;;;;;9.40;99.90;;;;;;5086178;28;19908;-68
2021/12/29 00:27:16;;;;;;;;;;;9.50;99.90;;;;;;5088397;28;19908;-70
2021/12/29 00:29:42;;;;;;;;;;;9.50;99.90;;;;;;5088556;28;19943;-71
2021/12/29 00:32:07;;;;;;;;;;;9.50;99.90;;;;;;5089293;28;19911;-70
2021/12/29 00:34:33;;;;;;;;;;;9.40;99.90;;;;;;5098760;28;19908;-71
2021/12/29 00:36:58;;;;;;;;;;;9.40;99.90;;;;;;5077970;28;19908;-70
2021/12/29 00:39:24;;;;;;;;;;;9.30;99.90;;;;;;5088396;28;20269;-70
2021/12/29 00:41:49;;;;;;;;;;;9.40;99.90;;;;;;5093322;28;19931;-71
2021/12/29 00:44:15;;;;;;;;;;;9.40;99.90;;;;;;5093143;28;19908;-71
2021/12/29 00:46:41;;;;;;;;;;;9.30;99.90;;;;;;5100981;28;19908;-70
2021/12/29 00:49:08;;;;;;;;;;;9.40;99.90;;;;;;5090364;28;20090;-69
2021/12/29 00:51:33;;;;;;;;;;;9.40;99.90;;;;;;5080063;28;19904;-71
2021/12/29 00:53:59;;;;;;;;;;;9.50;99.90;;;;;;5080027;28;19919;-71
2021/12/29 00:56:25;;;;;;;;;;;9.50;99.90;;;;;;5086855;28;20007;-70
2021/12/29 00:58:51;;;;;;;;;;;9.50;99.90;;;;;;5086414;28;20015;-70
2021/12/29 01:01:16;;;;;;;;;;;9.60;99.90;;;;;;5093938;28;20008;-71
2021/12/29 01:03:43;;;;;;;;;;;9.50;99.90;;;;;;5090514;28;19908;-70
2021/12/29 01:06:09;;;;;;;;;;;9.50;99.90;;;;;;5095302;28;19908;-71
2021/12/29 01:08:34;;;;;;;;;;;9.50;99.90;;;;;;5096740;28;19908;-71
2021/12/29 01:11:00;;;;;;;;;;;9.50;99.90;;;;;;5087751;28;19914;-70
2021/12/29 01:13:31;;;;;;;;;;;9.50;99.90;;;;;;5088229;28;19920;-70
2021/12/29 01:16:09;;;;;;;;;;;9.50;99.90;;;;;;5090176;28;20226;-70
2021/12/29 01:18:35;;;;;;;;;;;9.60;99.90;;;;;;5096167;28;19919;-72
2021/12/29 01:21:01;;;;;;;;;;;9.50;99.90;;;;;;5096656;28;20311;-71
2021/12/29 01:23:27;;;;;;;;;;;9.50;99.90;;;;;;5093311;28;19930;-71
2021/12/29 01:25:52;;;;;;;;;;;9.50;99.90;;;;;;5104533;28;19995;-72
2021/12/29 01:28:18;;;;;;;;;;;9.40;99.90;;;;;;5106983;28;19908;-71
2021/12/29 01:30:44;;;;;;;;;;;9.40;99.90;;;;;;5093907;28;19912;-72
2021/12/29 01:33:09;;;;;;;;;;;9.40;99.90;;;;;;5094532;28;19912;-70
2021/12/29 01:35:35;;;;;;;;;;;9.40;99.90;;;;;;5093470;28;19987;-70
2021/12/29 01:38:02;;;;;;;;;;;9.40;99.90;;;;;;5083567;28;19908;-70
2021/12/29 01:40:28;;;;;;;;;;;9.50;99.90;;;;;;5105447;28;19954;-70
2021/12/29 01:42:53;;;;;;;;;;;9.60;99.90;;;;;;5089012;28;19955;-71
2021/12/29 01:45:19;;;;;;;;;;;9.50;99.90;;;;;;5094982;28;20358;-71
2021/12/29 01:47:45;;;;;;;;;;;9.50;99.90;;;;;;5101754;28;19907;-70
2021/12/29 01:50:12;;;;;;;;;;;9.50;99.90;;;;;;5101299;28;19967;-70
2021/12/29 01:52:39;;;;;;;;;;;9.50;99.90;;;;;;5103817;28;19915;-71
2021/12/29 01:55:07;;;;;;;;;;;9.50;99.90;;;;;;5088152;28;19911;-70
2021/12/29 01:57:32;;;;;;;;;;;9.60;99.90;;;;;;5105075;28;19911;-71
2021/12/29 01:59:58;;;;;;;;;;;9.50;99.90;;;;;;5103390;28;19911;-70
2021/12/29 02:02:23;;;;;;;;;;;9.40;99.90;;;;;;5102393;28;19911;-70
2021/12/29 02:04:49;;;;;;;;;;;9.40;99.90;;;;;;5100631;28;20028;-70
2021/12/29 02:07:15;;;;;;;;;;;9.40;99.90;;;;;;5099433;28;19923;-70
2021/12/29 02:09:40;;;;;;;;;;;9.40;99.90;;;;;;5096872;28;20102;-70
2021/12/29 02:12:07;;;;;;;;;;;9.40;99.90;;;;;;5090283;28;19974;-70
2021/12/29 02:14:33;;;;;;;;;;;9.40;99.90;;;;;;5095259;28;19912;-69
2021/12/29 02:16:59;;;;;;;;;;;9.40;99.90;;;;;;5077934;28;20049;-71
2021/12/29 02:19:25;;;;;;;;;;;9.60;99.90;;;;;;5077697;28;19916;-70
2021/12/29 02:22:04;;;;;;;;;;;9.60;99.90;;;;;;5102427;28;20388;-70
2021/12/29 02:24:44;;;;;;;;;;;9.60;99.90;;;;;;5131731;27;19995;-70
2021/12/29 02:27:11;;;;;;;;;;;9.60;99.90;;;;;;5091854;28;20024;-70
2021/12/29 02:29:37;;;;;;;;;;;9.60;99.90;;;;;;5086644;28;19908;-70
2021/12/29 02:32:02;;;;;;;;;;;9.60;99.90;;;;;;5104635;28;19961;-70
2021/12/29 02:34:28;;;;;;;;;;;9.60;99.90;;;;;;5100547;28;20388;-70
2021/12/29 02:36:55;;;;;;;;;;;9.60;99.90;;;;;;5095445;28;19924;-70
2021/12/29 02:39:22;;;;;;;;;;;9.60;99.90;;;;;;5100023;28;20362;-70
2021/12/29 02:41:50;;;;;;;;;;;9.60;99.90;;;;;;5096169;28;20270;-70
2021/12/29 02:44:21;;;;;;;;;;;9.60;99.90;;;;;;5089201;28;19991;-70
2021/12/29 02:46:47;;;;;;;;;;;9.60;99.90;;;;;;5094334;28;19919;-71
2021/12/29 02:49:14;;;;;;;;;;;9.60;99.90;;;;;;5104350;28;19930;-70
2021/12/29 02:51:40;;;;;;;;;;;9.50;99.90;;;;;;5096684;28;19908;-69
2021/12/29 02:54:05;;;;;;;;;;;9.40;99.90;;;;;;5099874;28;19976;-71
2021/12/29 02:56:31;;;;;;;;;;;9.40;99.90;;;;;;5101615;28;19908;-72
2021/12/29 02:58:57;;;;;;;;;;;9.40;99.90;;;;;;5085212;28;20424;-71
2021/12/29 03:01:23;;;;;;;;;;;9.40;99.90;;;;;;5096260;28;20404;-72
2021/12/29 03:03:49;;;;;;;;;;;9.40;99.90;;;;;;5098422;28;20068;-72
2021/12/29 03:06:14;;;;;;;;;;;9.40;99.90;;;;;;5098355;28;19973;-73
2021/12/29 03:08:41;;;;;;;;;;;9.40;99.90;;;;;;5089086;28;19915;-72
2021/12/29 03:11:07;;;;;;;;;;;9.40;99.90;;;;;;5100232;28;19931;-73
2021/12/29 03:13:34;;;;;;;;;;;9.40;99.90;;;;;;5093534;28;19919;-72
2021/12/29 03:16:00;;;;;;;;;;;9.30;99.90;;;;;;5090684;28;19908;-72
2021/12/29 03:18:26;;;;;;;;;;;9.30;99.90;;;;;;5093622;28;19908;-72
2021/12/29 03:20:52;;;;;;;;;;;9.40;99.90;;;;;;5085093;28;20284;-72
2021/12/29 03:23:18;;;;;;;;;;;9.40;99.90;;;;;;5095350;28;20354;-71
2021/12/29 03:25:47;;;;;;;;;;;9.40;99.90;;;;;;5086278;28;19961;-71
2021/12/29 03:28:13;;;;;;;;;;;9.50;99.90;;;;;;5099750;28;20262;-72
2021/12/29 03:30:43;;;;;;;;;;;9.50;99.90;;;;;;5097312;28;19908;-72
2021/12/29 03:33:09;;;;;;;;;;;9.50;99.90;;;;;;5095561;28;19912;-71
2021/12/29 03:35:40;;;;;;;;;;;9.50;99.90;;;;;;5099703;28;19957;-72
2021/12/29 03:38:06;;;;;;;;;;;9.40;99.90;;;;;;5094077;28;20181;-71
2021/12/29 03:40:35;;;;;;;;;;;9.40;99.90;;;;;;5092669;28;19908;-72
2021/12/29 03:43:01;;;;;;;;;;;9.30;99.90;;;;;;5091043;28;19915;-73
2021/12/29 03:45:27;;;;;;;;;;;9.30;99.90;;;;;;5085191;28;19928;-72
2021/12/29 03:47:52;;;;;;;;;;;9.20;99.90;;;;;;5091554;28;20277;-72
2021/12/29 03:50:18;;;;;;;;;;;9.30;99.90;;;;;;5102953;28;20282;-70
2021/12/29 03:52:43;;;;;;;;;;;9.30;99.90;;;;;;5099343;28;20313;-71
2021/12/29 03:55:09;;;;;;;;;;;9.40;99.90;;;;;;5092080;28;20361;-71
2021/12/29 03:57:35;;;;;;;;;;;9.50;99.90;;;;;;5094377;28;19908;-72
2021/12/29 04:00:01;;;;;;;;;;;9.60;99.90;;;;;;5091378;28;20234;-71
2021/12/29 04:02:26;;;;;;;;;;;9.60;99.90;;;;;;5088252;28;20361;-72
2021/12/29 04:04:52;;;;;;;;;;;9.50;99.90;;;;;;5094924;28;19920;-72
2021/12/29 04:07:18;;;;;;;;;;;9.60;99.90;;;;;;5098563;28;20328;-72
2021/12/29 04:09:43;;;;;;;;;;;9.50;99.90;;;;;;5089673;28;19911;-72
2021/12/29 04:12:09;;;;;;;;;;;9.60;99.90;;;;;;5097088;28;19907;-71
2021/12/29 04:14:35;;;;;;;;;;;9.60;99.90;;;;;;5094926;28;19955;-72
2021/12/29 04:17:08;;;;;;;;;;;9.50;99.90;;;;;;5096575;28;19911;-72
2021/12/29 04:20:54;;;;;;;;;;;9.50;99.90;;;;;;5093814;28;20003;-72
2021/12/29 04:22:25;;;;;;;;;;;9.60;99.90;;;;;;5090592;28;20435;-71
2021/12/29 04:24:51;;;;;;;;;;;9.60;99.90;;;;;;5090829;28;20003;-72
2021/12/29 04:27:16;;;;;;;;;;;9.60;99.90;;;;;;5096644;28;19908;-73
2021/12/29 04:29:42;;;;;;;;;;;9.70;99.90;;;;;;5096878;28;19915;-73
2021/12/29 04:32:08;;;;;;;;;;;9.60;99.90;;;;;;5096491;28;19943;-73
2021/12/29 04:34:33;;;;;;;;;;;9.60;99.90;;;;;;5100047;28;19912;-72
2021/12/29 04:36:59;;;;;;;;;;;9.50;99.90;;;;;;5092993;28;20003;-72
2021/12/29 04:39:24;;;;;;;;;;;9.60;99.90;;;;;;5090485;28;19911;-72
2021/12/29 04:41:50;;;;;;;;;;;9.70;99.90;;;;;;5091497;28;20068;-72
2021/12/29 04:44:16;;;;;;;;;;;9.70;99.90;;;;;;5095853;28;19908;-72
2021/12/29 04:46:45;;;;;;;;;;;9.60;99.90;;;;;;5103814;28;20470;-71
2021/12/29 04:49:13;;;;;;;;;;;9.50;99.90;;;;;;5100549;28;19908;-71
2021/12/29 04:51:47;;;;;;;;;;;9.50;99.90;;;;;;5099398;28;20314;-70
2021/12/29 04:54:12;;;;;;;;;;;9.50;99.90;;;;;;5090256;28;19920;-70
2021/12/29 04:56:38;;;;;;;;;;;9.50;99.90;;;;;;5082326;28;19908;-71
2021/12/29 04:59:04;;;;;;;;;;;9.50;99.90;;;;;;5100954;28;19911;-70
2021/12/29 05:01:30;;;;;;;;;;;9.50;99.90;;;;;;5097994;28;19999;-70
2021/12/29 05:03:55;;;;;;;;;;;9.50;99.90;;;;;;5099580;28;19951;-71
2021/12/29 05:09:05;;;;;;;;;;;9.40;99.90;;;;;;5094382;28;19933;-71
2021/12/29 05:11:31;;;;;;;;;;;9.40;99.90;;;;;;5100687;28;19908;-70
2021/12/29 05:13:56;;;;;;;;;;;9.50;99.90;;;;;;5094998;28;20015;-70
2021/12/29 05:16:27;;;;;;;;;;;9.50;99.90;;;;;;5099919;28;20326;-72
2021/12/29 05:18:53;;;;;;;;;;;9.50;99.90;;;;;;5103645;28;20312;-71
2021/12/29 05:21:18;;;;;;;;;;;9.50;99.90;;;;;;5095041;28;20013;-70
2021/12/29 05:23:44;;;;;;;;;;;9.50;99.90;;;;;;5092150;28;19980;-71
2021/12/29 05:26:09;;;;;;;;;;;9.60;99.90;;;;;;5098233;28;19971;-69
2021/12/29 05:28:35;;;;;;;;;;;9.70;99.90;;;;;;5092974;28;19927;-70
2021/12/29 05:31:01;;;;;;;;;;;9.70;99.90;;;;;;5101719;28;20010;-71
2021/12/29 05:33:27;;;;;;;;;;;9.70;99.90;;;;;;5101641;28;19915;-70
2021/12/29 05:35:52;;;;;;;;;;;9.70;99.90;;;;;;5090303;28;19908;-70
2021/12/29 05:38:18;;;;;;;;;;;9.70;99.90;;;;;;5088689;28;20257;-71
2021/12/29 05:40:44;;;;;;;;;;;9.70;99.90;;;;;;5089926;28;19912;-71
2021/12/29 05:43:09;;;;;;;;;;;9.70;99.90;;;;;;5088835;28;19907;-71
2021/12/29 05:45:35;;;;;;;;;;;9.80;99.90;;;;;;5096428;28;19907;-71
2021/12/29 05:48:01;;;;;;;;;;;9.80;99.90;;;;;;5096108;28;19943;-72
2021/12/29 05:50:28;;;;;;;;;;;9.70;99.90;;;;;;5090147;28;19927;-71
2021/12/29 05:52:54;;;;;;;;;;;9.80;99.90;;;;;;5095980;28;19907;-70
2021/12/29 05:55:20;;;;;;;;;;;9.70;99.90;;;;;;5089644;28;19935;-71
2021/12/29 05:57:45;;;;;;;;;;;9.70;99.90;;;;;;5101415;28;19908;-70
2021/12/29 06:00:13;;;;;;;;;;;9.70;99.90;;;;;;5101952;28;19935;-70
2021/12/29 06:02:39;;;;;;;;;;;9.80;99.90;;;;;;5098848;28;19962;-70
2021/12/29 06:05:09;;;;;;;;;;;9.80;99.90;;;;;;5103152;28;19920;-72
2021/12/29 06:07:36;;;;;;;;;;;9.80;99.90;;;;;;5094056;28;20391;-69
2021/12/29 06:10:02;;;;;;;;;;;9.70;99.90;;;;;;5104301;28;19983;-71
2021/12/29 06:12:28;;;;;;;;;;;9.80;99.90;;;;;;5089286;28;19912;-71
2021/12/29 06:14:54;;;;;;;;;;;9.70;99.90;;;;;;5098415;28;19969;-71
2021/12/29 06:17:20;;;;;;;;;;;9.70;99.90;;;;;;5091694;28;19908;-71
2021/12/29 06:19:46;;;;;;;;;;;9.70;99.90;;;;;;5084644;28;19950;-71
2021/12/29 06:22:11;;;;;;;;;;;9.70;99.90;;;;;;5080882;28;19908;-71
2021/12/29 06:24:38;;;;;;;;;;;9.60;99.90;;;;;;5082143;28;19980;-71
2021/12/29 06:27:03;;;;;;;;;;;9.60;99.90;;;;;;5089657;28;19908;-70
2021/12/29 06:29:29;;;;;;;;;;;9.60;99.90;;;;;;5093494;28;20369;-71
2021/12/29 06:31:54;;;;;;;;;;;9.60;99.90;;;;;;5098042;28;19915;-70
2021/12/29 06:34:20;;;;;;;;;;;9.60;99.90;;;;;;5095463;28;19975;-70
2021/12/29 06:36:46;;;;;;;;;;;9.50;99.90;;;;;;5102914;28;19907;-70
2021/12/29 06:39:11;;;;;;;;;;;9.60;99.90;;;;;;5099061;28;19916;-71
2021/12/29 06:41:37;;;;;;;;;;;9.60;99.90;;;;;;5093747;28;19908;-71
2021/12/29 06:44:03;;;;;;;;;;;9.60;99.90;;;;;;5102377;28;19919;-71
2021/12/29 06:46:28;;;;;;;;;;;9.50;99.90;;;;;;5094716;28;19908;-72
2021/12/29 06:48:54;;;;;;;;;;;9.40;99.90;;;;;;5101391;28;19927;-70
2021/12/29 06:51:19;;;;;;;;;;;9.40;99.90;;;;;;5096232;28;20007;-70
2021/12/29 06:53:45;;;;;;;;;;;9.50;99.90;;;;;;5100848;28;20285;-70
2021/12/29 06:56:11;;;;;;;;;;;9.50;99.90;;;;;;5102431;28;20368;-70
2021/12/29 06:58:36;;;;;;;;;;;9.50;99.90;;;;;;5100742;28;19939;-70
2021/12/29 07:01:03;;;;;;;;;;;9.50;99.90;;;;;;5094395;28;19918;-70
2021/12/29 07:03:28;;;;;;;;;;;9.40;99.90;;;;;;5098326;28;20502;-71
2021/12/29 07:05:54;;;;;;;;;;;9.50;99.90;;;;;;5092874;28;19941;-65
2021/12/29 07:08:20;;;;;;;;;;;9.50;99.90;;;;;;5102853;28;19968;-65
2021/12/29 07:10:46;;;;;;;;;;;9.50;99.90;;;;;;5097036;28;19922;-64
2021/12/29 07:13:11;;;;;;;;;;;9.50;99.90;;;;;;5098586;28;19999;-65
2021/12/29 07:15:37;;;;;;;;;;;9.40;99.90;;;;;;5102722;28;19957;-63
2021/12/29 07:18:03;;;;;;;;;;;9.40;99.90;;;;;;5097415;28;19957;-65
2021/12/29 07:20:29;;;;;;;;;;;9.40;99.90;;;;;;5100642;28;19934;-65
2021/12/29 07:22:54;;;;;;;;;;;9.40;99.90;;;;;;5098392;28;19912;-65
2021/12/29 07:25:22;;;;;;;;;;;9.30;99.90;;;;;;5099886;28;20535;-66
2021/12/29 07:27:48;;;;;;;;;;;9.30;99.90;;;;;;5096367;28;19914;-67
2021/12/29 07:30:13;;;;;;;;;;;9.30;99.90;;;;;;5090995;28;20303;-66
2021/12/29 07:32:39;;;;;;;;;;;9.20;99.90;;;;;;5092262;28;19935;-66
2021/12/29 07:35:05;;;;;;;;;;;9.20;99.90;;;;;;5097865;28;19920;-67
2021/12/29 07:37:30;;;;;;;;;;;9.20;99.90;;;;;;5098110;28;19912;-67
2021/12/29 07:39:56;;;;;;;;;;;9.20;99.90;;;;;;5101634;28;19903;-67
2021/12/29 07:42:21;;;;;;;;;;;9.20;99.90;;;;;;5130923;27;19947;-67
2021/12/29 07:44:49;;;;;;;;;;;9.20;99.90;;;;;;5094704;28;20012;-68
2021/12/29 07:47:15;;;;;;;;;;;9.30;99.90;;;;;;5091895;28;19917;-67
2021/12/29 07:49:40;;;;;;;;;;;9.30;99.90;;;;;;5097754;28;19911;-66
2021/12/29 07:52:06;;;;;;;;;;;9.40;99.90;;;;;;5087193;28;19912;-67
2021/12/29 07:54:32;;;;;;;;;;;9.40;99.90;;;;;;5096136;28;20440;-68
2021/12/29 07:56:57;;;;;;;;;;;9.50;99.90;;;;;;5100454;28;19908;-69
2021/12/29 07:59:23;;;;;;;;;;;9.60;99.90;;;;;;5098183;28;19914;-67
2021/12/29 08:01:49;;;;;;;;;;;9.80;99.90;;;;;;5097366;28;20014;-69
2021/12/29 08:04:15;;;;;;;;;;;9.90;99.90;;;;;;5091440;28;19912;-69
2021/12/29 08:06:41;;;;;;;;;;;10.00;99.90;;;;;;5080050;28;19962;-69
2021/12/29 08:09:07;;;;;;;;;;;10.00;99.90;;;;;;5071307;28;19957;-69
2021/12/29 08:11:33;;;;;;;;;;;10.10;99.90;;;;;;5071000;28;19904;-68
2021/12/29 08:13:58;;;;;;;;;;;10.10;99.90;;;;;;5087207;28;19912;-70
2021/12/29 08:16:24;;;;;;;;;;;10.10;99.90;;;;;;5106749;28;20065;-67
2021/12/29 08:18:50;;;;;;;;;;;10.10;99.90;;;;;;5094980;28;20266;-68
2021/12/29 08:21:15;;;;;;;;;;;10.10;99.90;;;;;;5090111;28;19904;-68
2021/12/29 08:23:41;;;;;;;;;;;10.20;99.90;;;;;;5076090;28;19912;-66
2021/12/29 08:26:07;;;;;;;;;;;10.30;99.90;;;;;;5073762;28;20037;-67
2021/12/29 08:28:32;;;;;;;;;;;10.50;99.90;;;;;;5106170;28;19904;-68
2021/12/29 08:30:58;;;;;;;;;;;10.60;99.90;;;;;;5107449;28;19934;-67
2021/12/29 08:33:24;;;;;;;;;;;10.60;99.90;;;;;;5090710;28;19915;-68
2021/12/29 08:35:49;;;;;;;;;;;10.60;99.90;;;;;;5088991;28;19904;-68
2021/12/29 08:38:15;;;;;;;;;;;10.50;99.90;;;;;;5079690;28;19918;-66
2021/12/29 08:40:41;;;;;;;;;;;10.50;99.90;;;;;;5090487;28;19950;-66
2021/12/29 08:43:07;;;;;;;;;;;10.50;99.90;;;;;;5090767;28;19943;-67
2021/12/29 08:45:33;;;;;;;;;;;10.50;99.90;;;;;;5090780;28;19904;-67
2021/12/29 08:47:58;;;;;;;;;;;10.60;99.90;;;;;;5086585;28;19908;-67
2021/12/29 08:50:25;;;;;;;;;;;10.60;99.90;;;;;;5070337;28;20416;-67
2021/12/29 08:52:51;;;;;;;;;;;10.60;99.90;;;;;;5073607;28;20414;-68
2021/12/29 08:55:18;;;;;;;;;;;10.60;99.90;;;;;;5088128;28;19908;-65
2021/12/29 08:57:44;;;;;;;;;;;10.60;99.90;;;;;;5087747;28;19998;-66
2021/12/29 09:00:11;;;;;;;;;;;10.60;99.90;;;;;;5091288;28;20393;-66
2021/12/29 09:02:37;;;;;;;;;;;10.70;99.90;;;;;;5090410;28;20266;-65
2021/12/29 09:05:03;;;;;;;;;;;10.80;99.90;;;;;;5073395;28;19935;-67
2021/12/29 09:07:28;;;;;;;;;;;10.80;99.90;;;;;;5070381;28;19905;-67
2021/12/29 09:09:54;;;;;;;;;;;10.90;99.90;;;;;;5085978;28;20403;-66
2021/12/29 09:12:20;;;;;;;;;;;10.90;99.90;;;;;;5084952;28;19987;-67
2021/12/29 09:14:45;;;;;;;;;;;10.80;99.90;;;;;;5083124;28;19912;-67
2021/12/29 09:17:11;;;;;;;;;;;10.70;99.90;;;;;;5070048;28;20346;-67
2021/12/29 09:19:40;;;;;;;;;;;10.70;99.90;;;;;;5072023;28;19908;-66
2021/12/29 09:22:06;;;;;;;;;;;10.80;99.90;;;;;;5090658;28;20315;-68
2021/12/29 09:24:32;;;;;;;;;;;10.80;99.90;;;;;;5087443;28;19908;-67
2021/12/29 09:26:57;;;;;;;;;;;10.70;99.90;;;;;;5070783;28;19904;-66
2021/12/29 09:29:23;;;;;;;;;;;10.70;99.90;;;;;;5093037;28;19927;-66
2021/12/29 09:31:49;;;;;;;;;;;10.70;99.90;;;;;;5103043;28;19916;-66
2021/12/29 09:34:14;;;;;;;;;;;10.70;99.90;;;;;;5086460;28;20308;-68
2021/12/29 09:36:40;;;;;;;;;;;10.70;99.90;;;;;;5088158;28;19908;-67
2021/12/29 09:39:06;;;;;;;;;;;10.60;99.90;;;;;;5093322;28;19904;-68
2021/12/29 09:41:32;;;;;;;;;;;10.60;99.90;;;;;;5093887;28;19907;-67
2021/12/29 09:43:58;;;;;;;;;;;10.60;99.90;;;;;;5092224;28;20296;-67
2021/12/29 09:46:23;;;;;;;;;;;10.60;99.90;;;;;;5100217;28;19928;-67
2021/12/29 09:48:51;;;;;;;;;;;10.70;99.90;;;;;;5100741;28;20001;-68
2021/12/29 09:51:17;;;;;;;;;;;10.70;99.90;;;;;;5096446;28;20457;-66
2021/12/29 09:53:44;;;;;;;;;;;10.80;99.90;;;;;;5088826;28;19912;-67
2021/12/29 09:56:10;;;;;;;;;;;10.90;99.90;;;;;;5092666;28;19915;-67
2021/12/29 09:58:36;;;;;;;;;;;11.00;99.90;;;;;;5110686;28;19903;-67
2021/12/29 10:01:04;;;;;;;;;;;11.10;99.90;;;;;;5094537;28;19912;-67
2021/12/29 10:03:30;;;;;;;;;;;11.20;99.90;;;;;;5074418;28;19923;-66
2021/12/29 10:05:57;;;;;;;;;;;11.20;99.90;;;;;;5090932;28;20253;-66
2021/12/29 10:08:24;;;;;;;;;;;11.20;99.90;;;;;;5103036;28;19908;-66
2021/12/29 10:10:51;;;;;;;;;;;11.30;99.90;;;;;;5086945;28;20449;-67
2021/12/29 10:13:17;;;;;;;;;;;11.40;99.90;;;;;;5094248;28;20373;-66
2021/12/29 10:15:44;;;;;;;;;;;11.50;99.90;;;;;;5090913;28;19908;-66
2021/12/29 10:18:11;;;;;;;;;;;11.50;99.90;;;;;;5090505;28;19972;-66
2021/12/29 10:20:50;;;;;;;;;;;11.50;99.90;;;;;;5089702;28;19908;-67
2021/12/29 10:23:21;;;;;;;;;;;11.50;99.90;;;;;;5071352;28;19904;-67
2021/12/29 10:25:46;;;;;;;;;;;11.50;99.90;;;;;;5073098;28;19919;-66
2021/12/29 10:28:22;;;;;;;;;;;11.50;99.90;;;;;;5072329;28;19904;-66
2021/12/29 10:30:54;;;;;;;;;;;11.50;99.90;;;;;;5103389;28;20364;-67
2021/12/29 10:33:19;;;;;;;;;;;11.40;99.90;;;;;;5095135;28;19934;-67
2021/12/29 10:35:45;;;;;;;;;;;11.30;99.90;;;;;;5072825;28;20033;-66
2021/12/29 10:38:10;;;;;;;;;;;11.40;99.90;;;;;;5088207;28;19908;-66
2021/12/29 10:40:36;;;;;;;;;;;11.20;99.90;;;;;;5072038;28;19904;-66
2021/12/29 10:43:02;;;;;;;;;;;11.20;99.90;;;;;;5077966;28;19908;-67
2021/12/29 10:45:28;;;;;;;;;;;11.20;99.90;;;;;;5074112;28;19947;-67
2021/12/29 10:47:54;;;;;;;;;;;11.20;99.90;;;;;;5071913;28;19966;-65
2021/12/29 10:50:20;;;;;;;;;;;11.20;99.90;;;;;;5077905;28;20380;-67
2021/12/29 10:52:45;;;;;;;;;;;11.30;99.90;;;;;;5091419;28;19908;-68
2021/12/29 10:55:19;;;;;;;;;;;11.30;99.90;;;;;;5098001;28;19912;-68
2021/12/29 10:57:45;;;;;;;;;;;11.30;99.90;;;;;;5072048;28;20008;-67
2021/12/29 11:00:15;;;;;;;;;;;11.20;99.90;;;;;;5071712;28;20242;-66
2021/12/29 11:02:42;;;;;;;;;;;11.10;99.90;;;;;;5073534;28;19912;-67
2021/12/29 11:05:08;;;;;;;;;;;11.10;99.90;;;;;;5084530;28;19935;-66
2021/12/29 11:07:35;;;;;;;;;;;11.20;99.90;;;;;;5090485;28;19979;-68
2021/12/29 11:10:17;;;;;;;;;;;11.20;99.90;;;;;;5091788;28;19958;-67
2021/12/29 11:12:50;;;;;;;;;;;11.20;99.90;;;;;;5072519;28;19916;-65
2021/12/29 11:15:20;;;;;;;;;;;11.30;99.90;;;;;;5070288;28;19908;-66
2021/12/29 11:17:46;;;;;;;;;;;11.20;99.90;;;;;;5071842;28;19923;-66
2021/12/29 11:20:16;;;;;;;;;;;11.20;99.90;;;;;;5071984;28;19908;-67
2021/12/29 11:22:41;;;;;;;;;;;11.20;99.90;;;;;;5080171;28;19999;-67
2021/12/29 11:25:07;;;;;;;;;;;11.20;99.90;;;;;;5092663;28;20341;-66
2021/12/29 11:27:35;;;;;;;;;;;11.30;99.90;;;;;;5090950;28;20286;-68
2021/12/29 11:30:04;;;;;;;;;;;11.40;99.90;;;;;;5070811;28;19915;-67
2021/12/29 11:32:31;;;;;;;;;;;11.30;99.90;;;;;;5071493;28;19992;-68
2021/12/29 11:35:07;;;;;;;;;;;11.30;99.90;;;;;;5071204;28;20290;-66
2021/12/29 11:37:33;;;;;;;;;;;11.30;99.90;;;;;;5076265;28;19942;-66
2021/12/29 11:39:59;;;;;;;;;;;11.30;99.90;;;;;;5091264;28;20010;-66
2021/12/29 11:42:25;;;;;;;;;;;11.30;99.90;;;;;;5079021;28;19991;-66
2021/12/29 11:44:50;;;;;;;;;;;11.30;99.90;;;;;;5074727;28;19912;-66
2021/12/29 11:47:16;;;;;;;;;;;11.40;99.90;;;;;;5084594;28;19908;-67
2021/12/29 11:49:41;;;;;;;;;;;11.50;99.90;;;;;;5077354;28;19947;-67
2021/12/29 11:52:26;;;;;;;;;;;11.60;99.90;;;;;;5072458;28;20294;-67
2021/12/29 11:55:11;;;;;;;;;;;11.60;99.90;;;;;;5072285;28;20490;-70
2021/12/29 11:57:37;;;;;;;;;;;11.50;99.90;;;;;;5091427;28;19943;-66
2021/12/29 12:00:11;;;;;;;;;;;11.60;99.90;;;;;;5074997;28;19951;-67
2021/12/29 12:02:36;;;;;;;;;;;11.60;99.90;;;;;;5071866;28;19950;-67
2021/12/29 12:05:04;;;;;;;;;;;11.70;99.90;;;;;;5076754;28;20350;-65
2021/12/29 12:07:30;;;;;;;;;;;11.70;99.90;;;;;;5086772;28;20376;-66
2021/12/29 12:09:59;;;;;;;;;;;11.70;99.90;;;;;;5090688;28;19904;-65
2021/12/29 12:12:33;;;;;;;;;;;11.70;99.90;;;;;;5071793;28;19955;-68
2021/12/29 12:14:58;;;;;;;;;;;11.60;99.90;;;;;;5072150;28;19955;-67
2021/12/29 12:17:25;;;;;;;;;;;11.50;99.90;;;;;;5076514;28;19989;-67
2021/12/29 12:20:09;;;;;;;;;;;11.60;99.90;;;;;;5085212;28;19908;-66
2021/12/29 12:22:45;;;;;;;;;;;11.70;99.90;;;;;;5078155;28;20479;-66
2021/12/29 12:25:12;;;;;;;;;;;11.60;99.90;;;;;;5071120;28;19958;-65
2021/12/29 12:27:38;;;;;;;;;;;11.50;99.90;;;;;;5070463;28;20417;-68
2021/12/29 12:30:07;;;;;;;;;;;11.30;99.90;;;;;;5071333;28;20134;-67
2021/12/29 12:32:46;;;;;;;;;;;11.20;99.90;;;;;;5078616;28;19908;-66
2021/12/29 12:35:12;;;;;;;;;;;11.20;99.90;;;;;;5071770;28;20023;-67
2021/12/29 12:37:43;;;;;;;;;;;11.20;99.90;;;;;;5068724;28;20326;-68
2021/12/29 12:40:11;;;;;;;;;;;11.10;99.90;;;;;;5071316;28;19913;-66
2021/12/29 12:42:37;;;;;;;;;;;11.10;99.90;;;;;;5071797;28;20270;-66
2021/12/29 12:45:14;;;;;;;;;;;11.10;99.90;;;;;;5070218;28;19904;-68
2021/12/29 12:47:40;;;;;;;;;;;11.00;99.90;;;;;;5071087;28;19909;-67
2021/12/29 12:50:05;;;;;;;;;;;11.00;99.90;;;;;;5069977;28;19904;-67
2021/12/29 12:52:42;;;;;;;;;;;11.00;99.90;;;;;;5070069;28;19908;-70
2021/12/29 12:55:08;;;;;;;;;;;11.10;99.90;;;;;;5069899;28;19915;-67
2021/12/29 12:57:36;;;;;;;;;;;11.10;99.90;;;;;;5074793;28;19915;-68
2021/12/29 13:00:21;;;;;;;;;;;11.20;99.90;;;;;;5089218;28;19944;-67
2021/12/29 13:02:53;;;;;;;;;;;11.20;99.90;;;;;;5082212;28;19909;-66
2021/12/29 13:05:37;;;;;;;;;;;11.10;99.90;;;;;;5075833;28;20487;-67
2021/12/29 13:08:16;;;;;;;;;;;11.10;99.90;;;;;;5085584;28;20014;-67
2021/12/29 13:10:43;;;;;;;;;;;11.10;99.90;;;;;;5090804;28;19907;-67
2021/12/29 13:13:14;;;;;;;;;;;11.10;99.90;;;;;;5084164;28;20369;-66
2021/12/29 13:15:41;;;;;;;;;;;11.10;99.90;;;;;;5074721;28;19912;-67
2021/12/29 13:18:07;;;;;;;;;;;11.10;99.90;;;;;;5072867;28;19980;-68
2021/12/29 13:20:33;;;;;;;;;;;11.20;99.90;;;;;;5087485;28;20412;-67
2021/12/29 13:22:59;;;;;;;;;;;11.20;99.90;;;;;;5092442;28;19970;-66
2021/12/29 13:25:28;;;;;;;;;;;11.10;99.90;;;;;;5085859;28;19908;-66
2021/12/29 13:28:02;;;;;;;;;;;11.10;99.90;;;;;;5073986;28;19915;-67
2021/12/29 13:30:29;;;;;;;;;;;11.10;99.90;;;;;;5077249;28;19914;-67
2021/12/29 13:32:56;;;;;;;;;;;11.00;99.90;;;;;;5093197;28;19919;-66
2021/12/29 13:35:26;;;;;;;;;;;11.00;99.90;;;;;;5109114;28;20323;-68
2021/12/29 13:37:54;;;;;;;;;;;10.90;99.90;;;;;;5105350;28;19907;-66
2021/12/29 13:40:26;;;;;;;;;;;10.80;99.90;;;;;;5108573;28;19903;-67
2021/12/29 13:42:52;;;;;;;;;;;10.90;99.90;;;;;;5113971;28;20241;-67
2021/12/29 13:45:24;;;;;;;;;;;10.80;99.90;;;;;;5104764;28;19979;-66
2021/12/29 13:47:50;;;;;;;;;;;10.70;99.90;;;;;;5083660;28;19915;-67
2021/12/29 13:50:16;;;;;;;;;;;10.60;99.90;;;;;;5093460;28;19994;-67
2021/12/29 13:52:53;;;;;;;;;;;10.50;99.90;;;;;;5093388;28;20408;-68
2021/12/29 13:55:25;;;;;;;;;;;10.50;99.90;;;;;;5093390;28;19983;-68
2021/12/29 13:57:54;;;;;;;;;;;10.50;99.90;;;;;;5095561;28;20002;-68
2021/12/29 14:00:20;;;;;;;;;;;10.50;99.90;;;;;;5098451;28;19919;-68
2021/12/29 14:02:45;;;;;;;;;;;10.50;99.90;;;;;;5085387;28;19908;-68
2021/12/29 14:05:11;;;;;;;;;;;10.50;99.90;;;;;;5076186;28;19912;-67
2021/12/29 14:07:38;;;;;;;;;;;10.50;99.90;;;;;;5072738;28;20278;-68
2021/12/29 14:10:04;;;;;;;;;;;10.50;99.90;;;;;;5084137;28;20417;-66
2021/12/29 14:12:33;;;;;;;;;;;10.50;99.90;;;;;;5091841;28;19996;-66
2021/12/29 14:15:00;;;;;;;;;;;10.60;99.90;;;;;;5114635;27;19927;-66
2021/12/29 14:17:25;;;;;;;;;;;10.60;99.90;;;;;;5079193;28;19912;-66
2021/12/29 14:19:52;;;;;;;;;;;10.60;99.90;;;;;;5087805;28;20350;-67
2021/12/29 14:22:27;;;;;;;;;;;10.60;99.90;;;;;;5097255;28;19904;-67
2021/12/29 14:24:53;;;;;;;;;;;10.70;99.90;;;;;;5092666;28;20389;-65